Debec, Canada
Current Conditions -  °F | °C
As of 12:53 PM on Wednesday 26 Nov 2014 (Local Time) from KHUL Reporting Station
Clear Clear  
Wind Chill: 34°   Ceiling: Unl
Heat Index: 38°   Visibility: 10mi
Dew Point: 22°   Wind: 5mph
Humidity: 53%   Direction: 350°N
Pressure: 30.17"   Gusts: NA
Location:  46.07°N, 67.68°W
Report Text: KHUL 261653Z AUTO 35004KT 10SM CLR 03/M06 A3017 RMK AO2 SLP222 T00331056
Loading
Personal Weather Stations






























Interactive Weather Map New forecast layout! Learn more

10-Day Weather Forecast

Advertisements
Track Severe Weather on mobile